createdAt,value
2022-10-09T00:03:29.966Z,101120.03
2022-10-09T00:08:55.158Z,101115.94
2022-10-09T00:14:19.069Z,101101.53
2022-10-09T00:19:43.290Z,101098.81
2022-10-09T00:25:10.652Z,101103.88
2022-10-09T00:30:35.362Z,101097.78
2022-10-09T00:35:59.465Z,101086.69
2022-10-09T00:41:27.994Z,101088.22
2022-10-09T00:46:53.677Z,101087.84
2022-10-09T00:52:21.616Z,101094.34
2022-10-09T00:57:48.097Z,101086.19
2022-10-09T01:03:12.030Z,101080.94
2022-10-09T01:08:40.423Z,101073.41
2022-10-09T01:14:15.254Z,101078.84
2022-10-09T01:20:01.443Z,101075.50
2022-10-09T01:25:33.702Z,101067.56
2022-10-09T01:31:03.639Z,101076.34
2022-10-09T01:36:29.339Z,101091.41
2022-10-09T01:41:56.007Z,101086.41
2022-10-09T01:47:22.751Z,101091.84
2022-10-09T01:52:51.818Z,101091.22
2022-10-09T01:58:23.226Z,101089.34
2022-10-09T02:03:51.339Z,101080.78
2022-10-09T02:09:17.784Z,101071.38
2022-10-09T02:14:41.964Z,101080.59
2022-10-09T02:20:13.533Z,101072.19
2022-10-09T02:25:40.494Z,101072.63
2022-10-09T02:31:12.436Z,101061.75
2022-10-09T02:36:39.277Z,101058.84
2022-10-09T02:42:03.645Z,101058.00
2022-10-09T02:47:27.444Z,101059.25
2022-10-09T02:52:53.253Z,101060.50
2022-10-09T02:58:17.939Z,101058.41
2022-10-09T03:03:47.705Z,101059.69
2022-10-09T03:09:13.240Z,101057.19
2022-10-09T03:14:37.532Z,101061.78
2022-10-09T03:20:01.694Z,101062.22
2022-10-09T03:25:27.497Z,101052.38
2022-10-09T03:30:51.824Z,101047.56
2022-10-09T03:36:15.761Z,101042.53
2022-10-09T03:41:41.399Z,101042.59
2022-10-09T03:52:59.752Z,101022.09
2022-10-09T03:58:26.147Z,101030.03
2022-10-09T04:03:51.991Z,101018.97
2022-10-09T04:09:18.846Z,101031.69
2022-10-09T04:14:45.281Z,101014.94
2022-10-09T04:20:10.444Z,101007.84
2022-10-09T04:25:35.349Z,101008.22
2022-10-09T04:31:02.575Z,101009.06
2022-10-09T04:36:26.953Z,101005.81
2022-10-09T04:41:52.830Z,101002.53
2022-10-09T04:47:20.431Z,101010.75
2022-10-09T04:52:46.905Z,100996.28
2022-10-09T04:58:13.191Z,100993.88
2022-10-09T05:03:39.323Z,100987.16
2022-10-09T05:09:03.944Z,100979.25
2022-10-09T05:14:28.701Z,100972.25
2022-10-09T05:19:55.792Z,100982.66
2022-10-09T05:25:22.041Z,100978.69
2022-10-09T05:30:46.750Z,100985.25
2022-10-09T05:36:13.593Z,100993.78
2022-10-09T05:41:38.131Z,100980.84
2022-10-09T05:47:02.763Z,100992.19
2022-10-09T05:52:28.730Z,100980.59
2022-10-09T05:57:54.051Z,100977.56
2022-10-09T06:03:18.835Z,100969.91
2022-10-09T06:08:46.634Z,100958.06
2022-10-09T06:14:14.263Z,100955.44
2022-10-09T06:19:39.388Z,100948.97
2022-10-09T06:25:06.095Z,100947.53
2022-10-09T06:30:32.806Z,100947.13
2022-10-09T06:36:09.757Z,100941.00
2022-10-09T06:41:36.429Z,100937.75
2022-10-09T06:47:10.029Z,100948.88
2022-10-09T06:52:34.098Z,100936.63
2022-10-09T06:57:59.812Z,100949.16
2022-10-09T07:03:23.792Z,100942.44
2022-10-09T07:08:50.614Z,100930.41
2022-10-09T07:14:16.855Z,100923.50
2022-10-09T07:19:42.612Z,100920.25
2022-10-09T07:25:08.090Z,100913.53
2022-10-09T07:30:33.742Z,100911.59
2022-10-09T07:35:59.757Z,100908.44
2022-10-09T07:41:27.072Z,100904.84
2022-10-09T07:46:52.606Z,100901.97
2022-10-09T07:52:16.867Z,100898.03
2022-10-09T07:57:40.905Z,100897.72
2022-10-09T08:03:06.677Z,100894.25
2022-10-09T08:08:31.480Z,100893.63
2022-10-09T08:13:56.093Z,100904.84
2022-10-09T08:19:21.271Z,100893.28
2022-10-09T08:24:45.268Z,100904.59
2022-10-09T08:30:10.365Z,100891.19
2022-10-09T08:35:37.664Z,100892.28
2022-10-09T08:41:07.692Z,100897.59
2022-10-09T08:46:41.498Z,100894.59
2022-10-09T08:52:18.024Z,100875.88
2022-10-09T08:57:42.352Z,100867.47
2022-10-09T09:03:34.867Z,100861.44
2022-10-09T09:09:09.060Z,100844.66
2022-10-09T09:14:47.631Z,100852.97
2022-10-09T09:20:18.527Z,100850.47
2022-10-09T09:25:46.971Z,100847.38
2022-10-09T09:31:18.402Z,100854.91
2022-10-09T09:36:50.498Z,100848.22
2022-10-09T09:42:19.359Z,100846.44
2022-10-09T09:47:49.999Z,100825.19
2022-10-09T09:53:20.717Z,100828.13
2022-10-09T09:58:51.269Z,100823.41
2022-10-09T10:04:21.863Z,100809.38
2022-10-09T10:10:02.935Z,100805.75
2022-10-09T10:15:31.241Z,100807.81
2022-10-09T10:20:57.851Z,100814.28
2022-10-09T10:26:29.511Z,100800.69
2022-10-09T10:32:03.497Z,100793.03
2022-10-09T10:37:33.111Z,100785.25
2022-10-09T10:43:19.533Z,100776.44
2022-10-09T10:48:48.280Z,100766.63
2022-10-09T10:54:34.145Z,100759.94
2022-10-09T11:00:06.443Z,100743.63
2022-10-09T11:05:48.354Z,100747.91
2022-10-09T11:11:19.267Z,100746.63
2022-10-09T11:16:54.503Z,100739.50
2022-10-09T11:22:40.510Z,100742.13
2022-10-09T11:28:12.381Z,100744.31
2022-10-09T11:33:41.307Z,100742.41
2022-10-09T11:39:12.224Z,100740.53
2022-10-09T11:44:47.273Z,100738.94
2022-10-09T11:50:34.965Z,100737.56
2022-10-09T11:56:09.175Z,100732.34
2022-10-09T12:01:37.929Z,100741.75
2022-10-09T12:07:07.194Z,100748.13
2022-10-09T12:12:33.544Z,100753.63
2022-10-09T12:17:57.977Z,100766.03
2022-10-09T12:23:27.413Z,100759.44
2022-10-09T12:28:56.995Z,100757.22
2022-10-09T12:34:26.611Z,100759.97
2022-10-09T12:39:51.584Z,100752.25
2022-10-09T12:45:20.844Z,100758.06
2022-10-09T12:50:45.536Z,100754.47
2022-10-09T12:56:13.539Z,100758.06
2022-10-09T13:01:41.345Z,100753.09
2022-10-09T13:07:23.110Z,100753.91
2022-10-09T13:12:52.969Z,100764.94
2022-10-09T13:18:24.048Z,100755.53
2022-10-09T13:23:49.707Z,100747.56
2022-10-09T13:29:15.627Z,100743.72
2022-10-09T13:34:43.256Z,100736.56
2022-10-09T13:40:12.912Z,100731.84
2022-10-09T13:45:37.111Z,100720.84
2022-10-09T13:51:03.308Z,100718.63
2022-10-09T13:56:27.909Z,100727.16
2022-10-09T14:01:56.814Z,100720.00
2022-10-09T14:07:22.668Z,100719.75
2022-10-09T14:12:50.425Z,100721.91
2022-10-09T14:18:15.309Z,100719.16
2022-10-09T14:23:40.279Z,100724.94
2022-10-09T14:29:04.576Z,100728.53
2022-10-09T14:34:28.234Z,100727.41
2022-10-09T14:39:55.034Z,100728.53
2022-10-09T14:45:19.061Z,100730.66
2022-10-09T14:50:43.277Z,100727.34
2022-10-09T14:56:13.865Z,100737.81
2022-10-09T15:01:38.129Z,100731.16
2022-10-09T15:07:03.244Z,100733.91
2022-10-09T15:12:29.566Z,100743.78
2022-10-09T15:17:55.829Z,100750.34
2022-10-09T15:23:20.548Z,100754.75
2022-10-09T15:28:46.829Z,100754.72
2022-10-09T15:34:17.709Z,100766.22
2022-10-09T15:39:43.260Z,100768.13
2022-10-09T15:45:10.254Z,100769.50
2022-10-09T15:50:37.228Z,100778.81
2022-10-09T15:56:05.923Z,100785.91
2022-10-09T16:01:31.141Z,100781.78
2022-10-09T16:06:55.214Z,100790.84
2022-10-09T16:12:20.152Z,100779.00
2022-10-09T16:17:45.854Z,100778.06
2022-10-09T16:23:10.380Z,100789.59
2022-10-09T16:28:36.006Z,100778.03
2022-10-09T16:34:02.301Z,100780.22
2022-10-09T16:39:26.851Z,100772.44
2022-10-09T16:44:53.832Z,100781.78
2022-10-09T16:50:19.992Z,100774.63
2022-10-09T16:55:44.501Z,100778.47
2022-10-09T17:01:10.209Z,100775.16
2022-10-09T17:06:40.366Z,100786.06
2022-10-09T17:12:05.124Z,100783.25
2022-10-09T17:17:29.851Z,100786.28
2022-10-09T17:22:58.543Z,100790.38
2022-10-09T17:28:22.749Z,100785.69
2022-10-09T17:33:48.478Z,100785.03
2022-10-09T17:39:18.604Z,100779.81
2022-10-09T17:44:42.530Z,100790.75
2022-10-09T17:50:08.087Z,100784.44
2022-10-09T17:55:33.647Z,100783.59
2022-10-09T18:00:58.528Z,100783.00
2022-10-09T18:06:23.932Z,100781.28
2022-10-09T18:11:50.186Z,100780.72
2022-10-09T18:17:14.976Z,100785.28
2022-10-09T18:22:42.332Z,100779.63
2022-10-09T18:28:07.598Z,100781.50
2022-10-09T18:33:32.051Z,100789.31
2022-10-09T18:38:59.856Z,100783.09
2022-10-09T18:44:27.087Z,100786.56
2022-10-09T18:49:56.106Z,100785.16
2022-10-09T18:55:20.124Z,100790.22
2022-10-09T19:00:45.501Z,100781.53
2022-10-09T19:06:11.278Z,100784.03
2022-10-09T19:11:36.296Z,100785.19
2022-10-09T19:17:01.983Z,100784.44
2022-10-09T19:22:26.340Z,100781.69
2022-10-09T19:27:50.889Z,100782.25
2022-10-09T19:33:21.115Z,100782.72
2022-10-09T19:38:45.865Z,100783.88
2022-10-09T19:44:10.287Z,100784.00
2022-10-09T19:49:36.831Z,100772.94
2022-10-09T19:55:00.843Z,100770.69
2022-10-09T20:00:25.220Z,100770.03
2022-10-09T20:05:50.593Z,100760.63
2022-10-09T20:11:15.263Z,100757.88
2022-10-09T20:16:40.025Z,100756.47
2022-10-09T20:22:05.237Z,100759.69
2022-10-09T20:27:31.067Z,100760.09
2022-10-09T20:32:59.088Z,100751.34
2022-10-09T20:38:25.986Z,100739.81
2022-10-09T20:43:54.146Z,100743.03
2022-10-09T20:49:18.890Z,100742.22
2022-10-09T20:54:46.248Z,100740.88
2022-10-09T21:00:12.952Z,100736.38
2022-10-09T21:05:41.506Z,100728.06
2022-10-09T21:11:11.574Z,100725.72
2022-10-09T21:16:39.040Z,100724.22
2022-10-09T21:22:03.741Z,100714.47
2022-10-09T21:27:30.312Z,100730.41
2022-10-09T21:32:55.114Z,100725.19
2022-10-09T21:38:22.025Z,100728.38
2022-10-09T21:43:47.805Z,100712.91
2022-10-09T21:49:20.765Z,100727.03
2022-10-09T21:54:46.263Z,100729.53
2022-10-09T22:00:13.504Z,100722.25
2022-10-09T22:05:40.459Z,100727.25
2022-10-09T22:11:05.533Z,100746.81
2022-10-09T22:16:31.271Z,100749.44
2022-10-09T22:21:56.721Z,100744.44
2022-10-09T22:27:24.516Z,100740.88
2022-10-09T22:32:51.112Z,100750.69
2022-10-09T22:38:15.797Z,100749.38
2022-10-09T22:43:41.336Z,100747.19
2022-10-09T22:49:08.582Z,100763.22
2022-10-09T22:54:34.348Z,100764.63
2022-10-09T23:00:00.876Z,100769.00
2022-10-09T23:05:26.102Z,100766.88
2022-10-09T23:10:51.468Z,100774.94
2022-10-09T23:16:16.411Z,100775.78
2022-10-09T23:21:43.724Z,100775.88
2022-10-09T23:27:08.342Z,100757.50
2022-10-09T23:32:31.933Z,100763.53
2022-10-09T23:37:57.143Z,100757.50
2022-10-09T23:43:23.597Z,100764.06
2022-10-09T23:48:48.826Z,100758.84
2022-10-09T23:54:14.500Z,100761.03
2022-10-09T23:59:39.572Z,100765.66
